Time;durP1;ratioP1;P1;durP2;ratioP2;P2;SDS_P1;SDS_P2;PMS_P1;PMS_P2;Temp;Humidity;BMP_temperature;BMP_pressure;BME280_temperature;BME280_humidity;BME280_pressure;Samples;Min_cycle;Max_cycle;Signal;HPM_P1;HPM_P2
2021/11/08 00:00:12;;;;;;;27.18;24.36;;;;;;;8.98;62.71;101153.19;449619;115;922821;-82
2021/11/08 00:01:18;;;;;;;32.87;24.87;;;;;;;8.97;62.68;101148.77;446693;116;922643;-82
2021/11/08 00:02:23;;;;;;;27.86;24.86;;;;;;;8.96;62.75;101138.08;452407;114;922753;-82
2021/11/08 00:03:30;;;;;;;30.71;25.06;;;;;;;8.96;62.84;101130.77;457267;114;922947;-84
2021/11/08 00:04:33;;;;;;;27.31;24.38;;;;;;;8.98;62.98;101123.27;457843;113;924195;-82
2021/11/08 00:05:42;;;;;;;30.35;25.07;;;;;;;9.01;62.85;101130.19;456279;114;922644;-82
2021/11/08 00:06:44;;;;;;;27.31;24.37;;;;;;;9.02;62.76;101142.76;457812;112;923141;-82
2021/11/08 00:07:52;;;;;;;26.19;23.55;;;;;;;9.02;62.66;101134.59;449087;115;923168;-83
2021/11/08 00:08:53;;;;;;;27.30;23.62;;;;;;;9.01;62.68;101141.06;465999;112;930386;-81
2021/11/08 00:09:57;;;;;;;26.76;24.12;;;;;;;8.99;62.63;101143.13;470812;110;922502;-81
2021/11/08 00:11:01;;;;;;;35.66;24.76;;;;;;;8.96;62.63;101148.95;462704;112;930334;-83
2021/11/08 00:12:05;;;;;;;26.49;23.85;;;;;;;8.94;62.72;101140.98;464046;112;922866;-82
2021/11/08 00:13:09;;;;;;;27.15;23.67;;;;;;;8.93;62.87;101133.03;469657;110;922722;-83
2021/11/08 00:14:18;;;;;;;27.20;24.33;;;;;;;8.93;62.83;101133.03;469507;110;922851;-82
2021/11/08 00:15:23;;;;;;;27.63;24.58;;;;;;;8.93;62.90;101135.75;468934;110;922956;-82
2021/11/08 00:16:42;;;;;;;29.20;24.03;;;;;;;8.94;62.80;101131.97;459361;112;923486;-83
2021/11/08 00:18:22;;;;;;;30.75;25.67;;;;;;;8.93;62.81;101133.03;453294;114;922626;-82
2021/11/08 00:20:22;;;;;;;26.94;23.94;;;;;;;8.94;62.80;101118.37;457852;113;923184;-81
2021/11/08 00:21:20;;;;;;;27.49;24.59;;;;;;;8.95;62.90;101122.78;454720;115;922495;-82
2021/11/08 00:22:24;;;;;;;29.02;25.14;;;;;;;8.97;62.83;101120.73;455196;115;923079;-82
2021/11/08 00:23:28;;;;;;;30.99;24.66;;;;;;;8.96;62.87;101113.59;454362;113;922756;-82
2021/11/08 00:24:37;;;;;;;27.46;24.51;;;;;;;8.95;62.90;101111.91;456078;113;930350;-84
2021/11/08 00:25:41;;;;;;;26.23;23.47;;;;;;;8.95;62.85;101111.91;456327;113;922683;-83
2021/11/08 00:26:45;;;;;;;27.49;23.71;;;;;;;8.93;62.93;101114.00;458042;112;923179;-82
2021/11/08 00:27:49;;;;;;;33.99;24.75;;;;;;;8.92;62.92;101106.87;454119;114;922564;-82
2021/11/08 00:28:52;;;;;;;29.05;25.16;;;;;;;8.92;62.92;101117.74;453013;113;922793;-82
2021/11/08 00:29:56;;;;;;;30.74;24.92;;;;;;;8.88;62.92;101109.10;454268;115;922704;-81
2021/11/08 00:31:00;;;;;;;27.29;24.37;;;;;;;8.88;62.83;101100.10;452884;114;922852;-81
2021/11/08 00:32:05;;;;;;;28.39;25.23;;;;;;;8.86;62.92;101110.34;453472;115;930327;-81
2021/11/08 00:33:15;;;;;;;57.07;43.41;;;;;;;8.84;62.94;101109.69;454281;115;922530;-81
2021/11/08 00:34:16;;;;;;;76.60;62.99;;;;;;;8.81;63.00;101113.64;455641;115;923041;-80
2021/11/08 00:35:20;;;;;;;76.72;61.41;;;;;;;8.79;63.00;101105.67;454746;114;922694;-81
2021/11/08 00:36:25;;;;;;;51.27;40.99;;;;;;;8.78;63.15;101117.57;456407;115;930414;-81
2021/11/08 00:37:28;;;;;;;35.59;31.72;;;;;;;8.78;63.20;101112.13;454574;115;923134;-81
2021/11/08 00:38:32;;;;;;;31.51;27.37;;;;;;;8.79;63.26;101105.67;451207;116;923516;-82
2021/11/08 00:39:36;;;;;;;32.24;25.79;;;;;;;8.81;63.35;101101.92;453596;114;930608;-82
2021/11/08 00:40:42;;;;;;;27.31;24.69;;;;;;;8.84;63.30;101096.09;450457;115;922217;-82
2021/11/08 00:41:46;;;;;;;28.97;25.14;;;;;;;8.85;63.30;101090.47;458517;112;922545;-82
2021/11/08 00:42:50;;;;;;;26.96;24.25;;;;;;;8.86;63.32;101089.44;454055;114;922517;-81
2021/11/08 00:43:53;;;;;;;26.18;23.49;;;;;;;8.86;63.28;101089.44;452782;114;922375;-81
2021/11/08 00:44:57;;;;;;;25.56;22.99;;;;;;;8.87;63.35;101085.69;459200;112;922998;-81
2021/11/08 00:46:00;;;;;;;27.69;23.59;;;;;;;8.87;63.36;101079.41;458989;112;923020;-81
2021/11/08 00:47:08;;;;;;;28.38;24.20;;;;;;;8.86;63.38;101075.84;453422;114;923297;-82
2021/11/08 00:48:10;;;;;;;26.86;23.79;;;;;;;8.87;63.39;101071.25;452583;114;930862;-82
2021/11/08 00:49:14;;;;;;;33.66;27.61;;;;;;;8.87;63.42;101074.81;458795;112;922610;-82
2021/11/08 00:50:19;;;;;;;28.35;25.33;;;;;;;8.88;63.49;101064.75;457636;114;922982;-83
2021/11/08 00:51:23;;;;;;;29.08;26.02;;;;;;;8.89;63.53;101061.84;452722;114;922583;-82
2021/11/08 00:52:27;;;;;;;29.06;25.07;;;;;;;8.90;63.58;101060.81;452800;114;923086;-82
2021/11/08 00:53:31;;;;;;;29.45;25.51;;;;;;;8.93;63.57;101065.86;457478;112;922709;-81
2021/11/08 00:54:37;;;;;;;30.78;26.55;;;;;;;8.94;63.53;101053.95;457395;112;922612;-83
2021/11/08 00:55:42;;;;;;;28.01;23.78;;;;;;;8.94;63.56;101053.11;457405;112;930529;-82
2021/11/08 00:56:49;;;;;;;26.33;23.65;;;;;;;8.95;63.51;101052.08;456950;112;922997;-83
2021/11/08 00:57:54;;;;;;;27.80;24.52;;;;;;;8.97;63.57;101053.59;460185;112;922663;-82
2021/11/08 00:58:56;;;;;;;29.38;23.35;;;;;;;8.99;63.52;101047.93;458872;112;923025;-83
2021/11/08 01:00:00;;;;;;;27.36;24.07;;;;;;;8.98;63.46;101048.98;454402;114;923121;-83
2021/11/08 01:01:07;;;;;;;26.57;23.60;;;;;;;8.99;63.60;101047.93;449929;115;930383;-83
2021/11/08 01:02:13;;;;;;;26.38;23.77;;;;;;;9.00;63.58;101050.47;448881;115;930478;-81
2021/11/08 01:03:20;;;;;;;29.34;24.06;;;;;;;9.01;63.41;101054.88;452766;114;923060;-80
2021/11/08 01:04:24;;;;;;;25.62;22.54;;;;;;;9.00;63.45;101055.05;453140;114;923377;-83
2021/11/08 01:05:28;;;;;;;26.92;23.66;;;;;;;8.98;63.36;101051.71;454871;114;922709;-82
2021/11/08 01:06:34;;;;;;;25.40;22.77;;;;;;;8.96;63.41;101054.61;464245;110;923089;-83
2021/11/08 01:07:38;;;;;;;26.18;23.27;;;;;;;8.96;63.39;101042.89;468158;110;922486;-83
2021/11/08 01:08:42;;;;;;;25.36;22.68;;;;;;;8.96;63.48;101040.17;468798;110;922569;-82
2021/11/08 01:09:46;;;;;;;24.62;22.26;;;;;;;8.97;63.56;101042.70;469568;110;923207;-82
2021/11/08 01:10:51;;;;;;;25.27;22.75;;;;;;;9.00;63.57;101041.45;468864;110;923503;-82
2021/11/08 01:11:56;;;;;;;31.80;22.99;;;;;;;9.02;63.57;101044.84;467730;110;922645;-82
2021/11/08 01:12:59;;;;;;;26.26;23.57;;;;;;;9.02;63.53;101037.52;467258;110;922519;-82
2021/11/08 01:14:03;;;;;;;24.76;22.22;;;;;;;9.01;63.46;101043.99;469544;110;922943;-82
2021/11/08 01:15:07;;;;;;;27.27;22.70;;;;;;;9.00;63.45;101031.42;467346;110;922551;-83
2021/11/08 01:16:13;;;;;;;26.02;22.04;;;;;;;9.00;63.46;101033.30;462440;111;930403;-82
2021/11/08 01:17:17;;;;;;;25.85;22.68;;;;;;;8.98;63.51;101033.52;462434;111;923018;-82
2021/11/08 01:18:20;;;;;;;24.33;21.76;;;;;;;8.96;63.58;101030.13;468562;110;922981;-82
2021/11/08 01:19:27;;;;;;;26.17;21.36;;;;;;;8.98;63.58;101035.39;469183;110;922609;-82
2021/11/08 01:20:34;;;;;;;24.60;21.86;;;;;;;8.95;63.48;101027.60;469438;110;930653;-82
2021/11/08 01:21:37;;;;;;;22.35;20.28;;;;;;;8.91;63.47;101032.59;468581;110;922889;-82
2021/11/08 01:22:41;;;;;;;23.20;20.45;;;;;;;8.89;63.59;101036.53;460080;113;922319;-83
2021/11/08 01:23:45;;;;;;;21.90;19.68;;;;;;;8.87;63.66;101025.87;454936;114;922557;-82
2021/11/08 01:24:55;;;;;;;23.23;20.95;;;;;;;8.87;63.64;101027.73;453410;114;922628;-82
2021/11/08 01:26:12;;;;;;;22.26;20.07;;;;;;;8.86;63.68;101028.77;453191;114;922925;-83
2021/11/08 01:27:15;;;;;;;22.66;20.37;;;;;;;8.85;63.78;101021.64;463344;111;922359;-81
2021/11/08 01:28:18;;;;;;;21.70;19.76;;;;;;;8.84;63.77;101028.11;465671;112;922687;-82
2021/11/08 01:29:22;;;;;;;21.82;19.52;;;;;;;8.83;63.79;101027.27;465213;111;930311;-83
2021/11/08 01:30:28;;;;;;;24.87;20.77;;;;;;;8.82;63.79;101031.02;471213;110;925192;-82
2021/11/08 01:31:32;;;;;;;22.71;20.46;;;;;;;8.80;63.72;101035.81;469242;110;922984;-81
2021/11/08 01:32:36;;;;;;;22.47;20.24;;;;;;;8.77;63.76;101037.03;466663;110;923307;-81
2021/11/08 01:33:43;;;;;;;23.70;21.29;;;;;;;8.74;63.84;101029.27;467049;111;922985;-81
2021/11/08 01:34:47;;;;;;;23.04;21.00;;;;;;;8.74;63.95;101029.27;467988;110;922587;-81
2021/11/08 01:36:28;;;;;;;21.54;19.53;;;;;;;8.75;64.07;101020.09;469604;110;922968;-82
2021/11/08 01:37:04;;;;;;;22.74;20.39;;;;;;;8.76;64.11;101016.34;455165;110;923322;-81
2021/11/08 01:38:23;;;;;;;24.03;20.44;;;;;;;8.76;64.10;101029.09;467918;110;923008;-81
2021/11/08 01:39:21;;;;;;;22.48;20.26;;;;;;;8.75;64.11;101030.97;465617;110;922723;-82
2021/11/08 01:40:23;;;;;;;27.92;22.31;;;;;;;8.75;64.06;101033.68;467280;110;923036;-82
2021/11/08 01:41:28;;;;;;;21.81;19.85;;;;;;;8.74;64.12;101029.27;463073;112;922725;-83
2021/11/08 01:42:34;;;;;;;24.08;20.69;;;;;;;8.75;64.23;101035.55;462174;112;922685;-82
2021/11/08 01:43:37;;;;;;;22.27;20.19;;;;;;;8.78;64.27;101046.03;470168;110;922547;-82
2021/11/08 01:44:42;;;;;;;23.18;20.76;;;;;;;8.79;64.18;101042.28;471431;110;922480;-83
2021/11/08 01:45:46;;;;;;;22.32;20.01;;;;;;;8.81;64.19;101033.95;468422;110;930655;-82
2021/11/08 01:46:50;;;;;;;23.72;21.22;;;;;;;8.82;64.30;101028.29;468449;110;923669;-83
2021/11/08 01:47:54;;;;;;;22.16;20.05;;;;;;;8.84;64.26;101028.11;468498;110;922701;-81
2021/11/08 01:48:57;;;;;;;24.26;20.44;;;;;;;8.86;64.19;101026.89;467901;110;922473;-82
2021/11/08 01:50:01;;;;;;;21.56;19.33;;;;;;;8.87;64.21;101030.46;467873;111;930958;-82
2021/11/08 01:51:06;;;;;;;21.37;19.50;;;;;;;8.88;64.24;101024.80;465767;111;923021;-82
2021/11/08 01:52:12;;;;;;;21.11;19.18;;;;;;;8.88;64.29;101023.96;468540;111;930445;-82
2021/11/08 01:53:16;;;;;;;22.09;20.11;;;;;;;8.89;64.36;101026.50;467183;112;922772;-80
2021/11/08 01:54:20;;;;;;;21.08;19.05;;;;;;;8.90;64.34;101030.06;468112;111;922930;-83
2021/11/08 01:55:25;;;;;;;20.72;18.63;;;;;;;8.90;64.31;101030.06;468356;111;923282;-81
2021/11/08 01:56:30;;;;;;;21.41;19.44;;;;;;;8.90;64.34;101025.47;466745;112;922483;-82
2021/11/08 01:57:36;;;;;;;22.11;20.12;;;;;;;8.92;64.38;101030.72;465375;112;923000;-82
2021/11/08 01:58:40;;;;;;;21.05;19.11;;;;;;;8.92;64.35;101020.69;467342;111;922701;-82
2021/11/08 01:59:44;;;;;;;22.08;19.64;;;;;;;8.93;64.38;101024.25;466514;112;923107;-82
2021/11/08 02:00:49;;;;;;;22.10;20.10;;;;;;;8.93;64.40;101016.09;466175;111;922836;-79
2021/11/08 02:01:55;;;;;;;22.48;19.99;;;;;;;8.94;64.39;101015.88;466227;111;922913;-82
2021/11/08 02:02:59;;;;;;;20.69;18.88;;;;;;;8.94;64.37;101013.16;466723;111;923672;-81
2021/11/08 02:04:03;;;;;;;20.66;18.97;;;;;;;8.95;64.37;101008.56;466959;112;922798;-81
2021/11/08 02:05:08;;;;;;;21.62;19.06;;;;;;;8.95;64.40;101003.13;467513;110;923007;-82
2021/11/08 02:06:13;;;;;;;19.01;17.31;;;;;;;8.95;64.45;101012.12;465168;112;923043;-82
2021/11/08 02:07:16;;;;;;;19.49;17.70;;;;;;;8.96;64.49;101010.25;465898;111;922748;-81
2021/11/08 02:08:22;;;;;;;19.07;17.40;;;;;;;8.98;64.43;101008.20;465428;112;930645;-80
2021/11/08 02:09:26;;;;;;;19.54;17.63;;;;;;;8.95;64.48;101009.41;467615;111;922557;-82
2021/11/08 02:10:30;;;;;;;19.37;17.50;;;;;;;8.96;64.54;101008.38;469651;111;922387;-81
2021/11/08 02:11:35;;;;;;;18.71;17.16;;;;;;;8.98;64.60;101005.47;469843;111;922130;-80
2021/11/08 02:12:39;;;;;;;18.97;17.23;;;;;;;8.98;64.67;101000.03;468934;112;922791;-82
2021/11/08 02:13:43;;;;;;;19.11;17.17;;;;;;;8.99;64.67;101001.69;467220;112;922270;-82
2021/11/08 02:14:47;;;;;;;18.15;16.54;;;;;;;8.98;64.68;101006.32;467570;110;923007;-80
2021/11/08 02:15:51;;;;;;;17.71;16.24;;;;;;;8.98;64.73;101005.47;466885;111;930264;-81
2021/11/08 02:16:55;;;;;;;18.04;16.23;;;;;;;8.98;64.75;100998.16;466777;112;922727;-80
2021/11/08 02:17:59;;;;;;;18.72;17.13;;;;;;;8.99;64.82;101010.70;467071;111;922873;-81
2021/11/08 02:19:05;;;;;;;17.79;16.11;;;;;;;9.00;64.83;101003.37;466823;111;922702;-81
2021/11/08 02:20:18;;;;;;;17.18;15.63;;;;;;;8.99;64.85;101010.70;457065;113;922963;-81
2021/11/08 02:21:24;;;;;;;19.25;17.37;;;;;;;8.99;64.92;101016.14;460916;111;923080;-82
2021/11/08 02:22:29;;;;;;;18.48;16.70;;;;;;;8.98;64.98;101019.07;466380;110;922656;-82
2021/11/08 02:23:33;;;;;;;18.80;17.18;;;;;;;8.97;64.96;101017.38;467228;110;922709;-82
2021/11/08 02:24:41;;;;;;;18.50;16.89;;;;;;;8.98;65.04;101027.23;456561;114;922930;-81
2021/11/08 02:25:43;;;;;;;18.84;17.15;;;;;;;8.97;65.10;101018.23;433406;119;923067;-81
2021/11/08 02:26:48;;;;;;;18.19;16.49;;;;;;;8.97;65.18;101012.78;445126;114;923049;-83
2021/11/08 02:27:52;;;;;;;18.46;16.81;;;;;;;8.97;65.21;101018.23;456536;114;923005;-81
2021/11/08 02:28:56;;;;;;;18.98;17.35;;;;;;;8.99;65.30;101012.57;454665;114;922941;-82
2021/11/08 02:30:00;;;;;;;18.42;16.74;;;;;;;9.00;65.37;101014.27;459278;114;930569;-81
2021/11/08 02:31:05;;;;;;;17.60;16.11;;;;;;;9.02;65.43;101006.76;450102;116;923235;-82
2021/11/08 02:32:09;;;;;;;17.24;15.71;;;;;;;9.04;65.51;101002.80;457056;112;922654;-81
2021/11/08 02:33:16;;;;;;;17.71;16.18;;;;;;;9.07;65.52;101010.58;457957;112;922562;-81
2021/11/08 02:34:19;;;;;;;18.36;16.49;;;;;;;9.09;65.51;101000.36;456247;112;922588;-83
2021/11/08 02:35:24;;;;;;;17.37;15.64;;;;;;;9.11;65.53;101005.58;457210;112;923381;-82
2021/11/08 02:36:29;;;;;;;17.82;15.99;;;;;;;9.12;65.51;101005.39;457197;112;930933;-82
2021/11/08 02:37:33;;;;;;;17.87;16.31;;;;;;;9.13;65.51;101006.23;457632;114;922517;-82
2021/11/08 02:38:41;;;;;;;19.10;17.38;;;;;;;9.13;65.53;101011.68;459034;112;923045;-83
2021/11/08 02:39:46;;;;;;;19.18;17.23;;;;;;;9.12;65.53;101005.39;457296;114;923040;-80
2021/11/08 02:40:47;;;;;;;18.27;16.54;;;;;;;9.13;65.55;101003.52;456136;113;922906;-81
2021/11/08 02:41:51;;;;;;;17.66;16.01;;;;;;;9.13;65.61;101000.80;457472;113;922421;-81
2021/11/08 02:42:58;;;;;;;17.27;15.69;;;;;;;9.13;65.65;100995.36;458411;114;922572;-82
2021/11/08 02:44:03;;;;;;;17.04;15.64;;;;;;;9.13;65.65;101004.36;452422;115;931105;-82
2021/11/08 02:45:09;;;;;;;17.56;15.74;;;;;;;9.11;65.69;100992.83;451196;115;923242;-82
2021/11/08 02:46:17;;;;;;;18.22;16.62;;;;;;;9.11;65.82;100986.54;450928;116;930591;-79
2021/11/08 02:47:22;;;;;;;19.23;17.42;;;;;;;9.12;65.90;100980.06;443047;118;922807;-81
2021/11/08 02:48:25;;;;;;;18.69;17.01;;;;;;;9.12;65.91;100983.63;443228;116;923266;-81
2021/11/08 02:49:31;;;;;;;17.88;16.49;;;;;;;9.13;65.96;100982.60;447696;115;922472;-81
2021/11/08 02:50:36;;;;;;;18.30;16.71;;;;;;;9.14;65.97;100997.05;442229;118;930803;-81
2021/11/08 02:51:48;;;;;;;18.71;16.93;;;;;;;9.14;65.95;101010.65;443449;117;922698;-81
2021/11/08 02:52:50;;;;;;;18.33;16.67;;;;;;;9.13;65.96;101008.96;443243;117;922533;-81
2021/11/08 02:54:01;;;;;;;18.14;16.57;;;;;;;9.11;65.97;101008.30;442343;118;922547;-80
2021/11/08 02:55:02;;;;;;;18.62;16.75;;;;;;;9.11;66.09;101014.59;443611;118;922601;-84
2021/11/08 02:56:08;;;;;;;18.77;16.94;;;;;;;9.11;66.16;101008.30;443044;116;922749;-82
2021/11/08 02:57:12;;;;;;;18.99;17.29;;;;;;;9.12;66.18;101010.84;451199;115;930109;-82
2021/11/08 02:58:16;;;;;;;19.44;17.78;;;;;;;9.14;66.20;101008.77;451683;115;922871;-80
2021/11/08 02:59:20;;;;;;;18.63;16.88;;;;;;;9.16;66.25;101011.28;450790;115;930300;-79
2021/11/08 03:00:28;;;;;;;18.27;16.46;;;;;;;9.18;66.24;101003.77;451425;115;922318;-81
2021/11/08 03:01:33;;;;;;;18.83;17.23;;;;;;;9.19;66.23;101005.46;451142;115;922002;-81
2021/11/08 03:02:39;;;;;;;17.61;16.11;;;;;;;9.19;66.25;101005.46;448422;115;922265;-81
2021/11/08 03:03:45;;;;;;;17.57;16.08;;;;;;;9.18;66.24;101004.62;446902;117;930312;-82
2021/11/08 03:04:52;;;;;;;17.23;15.47;;;;;;;9.17;66.26;101002.93;447309;117;922503;-82
2021/11/08 03:06:00;;;;;;;17.27;15.76;;;;;;;9.18;66.30;100995.61;446397;115;922227;-81
2021/11/08 03:06:59;;;;;;;19.08;17.38;;;;;;;9.17;66.29;101000.20;446506;117;922542;-79
2021/11/08 03:08:09;;;;;;;17.71;16.08;;;;;;;9.17;66.30;101002.93;446265;115;922719;-80
2021/11/08 03:09:18;;;;;;;17.98;16.34;;;;;;;9.16;66.31;101003.11;446343;115;930337;-83
2021/11/08 03:10:24;;;;;;;17.42;15.83;;;;;;;9.16;66.37;100998.52;446512;117;922950;-81
2021/11/08 03:11:28;;;;;;;17.76;15.84;;;;;;;9.15;66.39;100991.39;446260;117;922257;-80
2021/11/08 03:12:35;;;;;;;18.04;16.53;;;;;;;9.14;66.47;100997.89;447513;115;922530;-81
2021/11/08 03:13:39;;;;;;;18.21;16.76;;;;;;;9.15;66.43;100998.73;448560;115;922477;-81
2021/11/08 03:14:55;;;;;;;17.41;15.99;;;;;;;9.13;66.44;100995.36;448070;117;922379;-82
2021/11/08 03:15:58;;;;;;;17.91;16.47;;;;;;;9.11;66.42;101002.86;446415;117;922794;-80
2021/11/08 03:16:57;;;;;;;17.29;15.86;;;;;;;9.09;66.54;100999.52;448582;115;922399;-82
2021/11/08 03:18:07;;;;;;;17.38;15.94;;;;;;;9.10;66.59;100995.73;448166;115;922595;-82
2021/11/08 03:20:22;;;;;;;17.69;16.03;;;;;;;9.12;66.65;100993.67;447281;115;922814;-81
2021/11/08 03:21:27;;;;;;;18.64;16.72;;;;;;;9.11;66.63;100994.70;447172;115;922423;-81
2021/11/08 03:22:33;;;;;;;17.42;15.96;;;;;;;9.09;66.62;100986.76;447694;115;922235;-81
2021/11/08 03:23:37;;;;;;;18.90;17.14;;;;;;;9.08;66.65;100984.22;447994;117;922313;-82
2021/11/08 03:24:50;;;;;;;18.42;16.83;;;;;;;9.07;66.72;100986.10;448218;115;922262;-81
2021/11/08 03:25:57;;;;;;;18.12;16.41;;;;;;;9.07;66.71;100982.53;447471;115;922186;-80
2021/11/08 03:26:56;;;;;;;18.28;16.73;;;;;;;9.07;66.76;100979.81;446127;117;922460;-82
2021/11/08 03:28:00;;;;;;;18.45;16.70;;;;;;;9.06;66.81;100976.25;446866;117;922791;-82
2021/11/08 03:29:05;;;;;;;18.26;16.39;;;;;;;9.05;66.82;100976.44;446355;115;922416;-83
2021/11/08 03:30:14;;;;;;;18.73;17.19;;;;;;;9.06;66.93;100976.25;447334;115;922896;-82
2021/11/08 03:31:18;;;;;;;18.66;16.86;;;;;;;9.06;66.95;100975.41;446323;117;922361;-79
2021/11/08 03:32:23;;;;;;;18.39;16.68;;;;;;;9.06;66.98;100976.25;447541;115;922763;-81
2021/11/08 03:33:28;;;;;;;19.13;17.58;;;;;;;9.06;66.95;100978.97;447181;117;930396;-81
2021/11/08 03:34:34;;;;;;;17.96;16.48;;;;;;;9.07;67.06;100977.09;448305;115;922437;-82
2021/11/08 03:35:38;;;;;;;18.75;17.19;;;;;;;9.09;67.07;100983.20;446320;117;930392;-81
2021/11/08 03:36:42;;;;;;;18.43;16.83;;;;;;;9.11;67.09;100978.38;448337;117;922078;-81
2021/11/08 03:37:46;;;;;;;18.56;16.73;;;;;;;9.13;67.07;100981.75;446656;117;922879;-81
2021/11/08 03:38:50;;;;;;;16.79;15.34;;;;;;;9.14;67.09;100980.73;447409;115;921808;-82
2021/11/08 03:39:53;;;;;;;17.32;15.80;;;;;;;9.15;67.08;100985.13;447279;117;922727;-81
2021/11/08 03:40:57;;;;;;;18.20;16.48;;;;;;;9.17;67.03;100985.77;446999;115;930493;-81
2021/11/08 03:42:00;;;;;;;17.32;15.86;;;;;;;9.17;67.02;100974.88;447354;115;922297;-80
2021/11/08 03:43:06;;;;;;;18.04;16.56;;;;;;;9.19;67.08;100970.94;446219;115;930272;-81
2021/11/08 03:44:10;;;;;;;17.06;15.56;;;;;;;9.23;67.07;100970.53;447920;112;922238;-82
2021/11/08 03:45:14;;;;;;;18.14;16.59;;;;;;;9.24;67.06;100970.34;440375;117;922681;-81
2021/11/08 03:46:20;;;;;;;18.87;17.18;;;;;;;9.28;67.06;100970.78;441591;115;930175;-80
2021/11/08 03:47:23;;;;;;;17.61;16.21;;;;;;;9.29;67.00;100967.88;446935;117;923258;-82
2021/11/08 03:48:27;;;;;;;17.51;15.99;;;;;;;9.31;66.94;100956.80;446791;115;922658;-80
2021/11/08 03:49:31;;;;;;;18.25;16.74;;;;;;;9.33;66.96;100958.27;447392;115;930226;-83
2021/11/08 03:50:36;;;;;;;18.46;16.39;;;;;;;9.36;66.97;100965.21;449757;114;922191;-81
2021/11/08 03:51:40;;;;;;;18.86;17.18;;;;;;;9.38;66.89;100963.95;456888;111;930030;-81
2021/11/08 03:52:44;;;;;;;18.29;16.80;;;;;;;9.39;66.81;100964.80;456763;114;930271;-81
2021/11/08 03:53:47;;;;;;;18.56;16.66;;;;;;;9.38;66.74;100966.67;460836;113;922003;-80
2021/11/08 03:54:51;;;;;;;17.48;16.10;;;;;;;9.38;66.71;100965.83;454268;114;930213;-82
2021/11/08 03:55:55;;;;;;;19.31;16.77;;;;;;;9.37;66.75;100958.73;459326;114;930038;-80
2021/11/08 03:56:59;;;;;;;17.88;16.23;;;;;;;9.37;66.83;100961.45;459498;109;922683;-80
2021/11/08 03:58:04;;;;;;;17.57;16.04;;;;;;;9.38;66.77;100957.67;450264;115;922609;-81
2021/11/08 03:59:07;;;;;;;17.59;15.99;;;;;;;9.36;66.78;100957.89;450112;115;922809;-81
2021/11/08 04:00:14;;;;;;;19.66;17.80;;;;;;;9.35;66.76;100956.20;450899;116;922152;-81
2021/11/08 04:01:18;;;;;;;19.42;17.32;;;;;;;9.34;66.81;100957.23;454852;114;922950;-82
2021/11/08 04:02:23;;;;;;;18.92;16.54;;;;;;;9.34;66.78;100959.95;462036;112;922135;-79
2021/11/08 04:03:29;;;;;;;19.68;17.75;;;;;;;9.33;66.79;100955.55;454270;114;922552;-80
2021/11/08 04:04:35;;;;;;;21.86;17.37;;;;;;;9.32;66.86;100959.30;459822;112;922651;-81
2021/11/08 04:05:40;;;;;;;27.31;18.24;;;;;;;9.31;66.83;100964.97;458023;114;922114;-83
2021/11/08 04:06:47;;;;;;;21.25;18.35;;;;;;;9.30;66.92;100955.11;457755;112;922256;-83
2021/11/08 04:07:51;;;;;;;23.02;18.18;;;;;;;9.30;67.00;100957.83;445473;117;922569;-83
2021/11/08 04:08:55;;;;;;;21.56;18.54;;;;;;;9.30;67.05;100957.83;458417;112;922724;-80
2021/11/08 04:09:59;;;;;;;20.21;18.06;;;;;;;9.32;67.08;100955.77;467307;110;922293;-81
2021/11/08 04:11:03;;;;;;;26.99;18.78;;;;;;;9.32;67.05;100950.33;471814;110;922526;-82
2021/11/08 04:12:08;;;;;;;24.16;18.62;;;;;;;9.33;67.07;100960.98;471768;110;922916;-81
2021/11/08 04:13:13;;;;;;;20.36;18.22;;;;;;;9.34;67.06;100972.72;465131;112;922298;-83
2021/11/08 04:14:18;;;;;;;25.61;18.16;;;;;;;9.34;67.04;100962.67;463104;112;922605;-81
2021/11/08 04:15:32;;;;;;;19.06;17.04;;;;;;;9.35;67.10;100972.53;471056;110;922434;-83
2021/11/08 04:16:32;;;;;;;21.76;17.37;;;;;;;9.36;67.14;100966.05;470936;110;922904;-82
2021/11/08 04:17:41;;;;;;;24.23;18.29;;;;;;;9.37;67.16;100964.98;472253;110;922327;-82
2021/11/08 04:18:48;;;;;;;25.16;18.38;;;;;;;9.38;67.20;100955.80;470394;110;922662;-82
2021/11/08 04:19:47;;;;;;;22.56;17.69;;;;;;;9.39;67.24;100952.03;470668;110;922178;-81
2021/11/08 04:20:53;;;;;;;20.54;18.07;;;;;;;9.40;67.26;100942.84;470045;110;922310;-81
2021/11/08 04:22:00;;;;;;;26.36;18.63;;;;;;;9.41;67.20;100949.13;470794;110;930003;-81
2021/11/08 04:23:04;;;;;;;21.38;18.66;;;;;;;9.41;67.23;100944.53;468569;110;922804;-81
2021/11/08 04:24:08;;;;;;;23.01;19.69;;;;;;;9.40;67.31;100948.28;470457;110;922223;-81
2021/11/08 04:25:13;;;;;;;20.52;18.49;;;;;;;9.39;67.39;100952.03;457267;113;922699;-80
2021/11/08 04:26:19;;;;;;;20.23;18.22;;;;;;;9.40;67.46;100945.56;448024;114;922923;-81
2021/11/08 04:27:23;;;;;;;20.25;18.28;;;;;;;9.40;67.50;100948.28;445121;116;923054;-81
2021/11/08 04:28:27;;;;;;;19.81;18.04;;;;;;;9.39;67.55;100952.03;444663;116;922576;-81
2021/11/08 04:29:32;;;;;;;21.26;18.18;;;;;;;9.39;67.63;100941.15;459412;112;922275;-81
2021/11/08 04:30:42;;;;;;;20.34;18.48;;;;;;;9.39;67.71;100937.59;454214;114;922210;-81
2021/11/08 04:31:42;;;;;;;21.02;18.21;;;;;;;9.39;67.76;100945.75;460035;112;922912;-83
2021/11/08 04:34:16;;;;;;;20.84;18.09;;;;;;;9.36;67.93;100952.45;455109;115;922646;-81
2021/11/08 04:35:15;;;;;;;20.30;17.91;;;;;;;9.36;68.05;100938.00;454737;115;922261;-83
2021/11/08 04:36:44;;;;;;;20.21;18.13;;;;;;;9.35;68.12;100947.19;454609;115;922806;-80
2021/11/08 04:37:57;;;;;;;20.68;17.38;;;;;;;9.33;68.20;100946.53;453424;115;922610;-81
2021/11/08 04:39:09;;;;;;;21.54;19.43;;;;;;;9.31;68.33;100937.75;454808;111;922247;-80
2021/11/08 04:40:10;;;;;;;18.88;16.87;;;;;;;9.30;68.42;100936.06;454746;114;922363;-84
2021/11/08 04:41:16;;;;;;;17.87;16.22;;;;;;;9.31;68.54;100949.48;454680;115;922544;-81
2021/11/08 04:45:21;;;;;;;16.92;15.47;;;;;;;9.31;68.72;100946.76;454482;113;922899;-81
2021/11/08 04:46:37;;;;;;;17.15;15.77;;;;;;;9.31;68.85;100949.48;444760;117;922906;-80
2021/11/08 04:48:53;;;;;;;16.97;15.39;;;;;;;9.33;68.85;100938.37;469880;110;922567;-81
2021/11/08 04:49:55;;;;;;;16.68;15.12;;;;;;;9.33;68.85;100931.05;466453;110;923065;-82
2021/11/08 04:53:29;;;;;;;17.92;16.12;;;;;;;9.35;68.89;100949.91;453489;115;922410;-81
2021/11/08 04:54:36;;;;;;;17.71;16.18;;;;;;;9.33;68.92;100939.22;453325;113;922885;-82
2021/11/08 04:55:56;;;;;;;19.26;17.16;;;;;;;9.31;68.95;100949.48;455727;113;922658;-81
2021/11/08 05:22:09;;;;;;;26.80;20.31;;;;;;;9.55;68.92;100923.66;462047;112;922806;-81
2021/11/08 05:27:49;;;;;;;25.92;20.76;;;;;;;9.60;68.74;100938.36;498235;103;930382;-82
2021/11/08 05:30:23;;;;;;;24.19;18.38;;;;;;;9.68;68.48;100928.36;502068;104;930588;-83
2021/11/08 05:31:27;;;;;;;21.18;17.93;;;;;;;9.69;68.56;100935.49;502637;104;922353;-82
2021/11/08 05:32:33;;;;;;;25.66;19.26;;;;;;;9.70;68.47;100934.45;502632;104;922938;-82
2021/11/08 05:33:36;;;;;;;26.49;20.07;;;;;;;9.72;68.42;100929.63;501645;103;922480;-81
2021/11/08 05:34:40;;;;;;;27.56;19.15;;;;;;;9.75;68.39;100951.03;502523;103;923043;-82
2021/11/08 05:35:45;;;;;;;33.50;22.32;;;;;;;9.75;68.31;100940.98;501836;104;930280;-81
2021/11/08 05:36:49;;;;;;;31.56;22.22;;;;;;;9.76;68.24;100944.55;500619;104;922488;-81
2021/11/08 05:37:53;;;;;;;30.54;21.59;;;;;;;9.76;68.22;100945.36;501434;103;923000;-83